Time;durP1;ratioP1;P1;durP2;ratioP2;P2;SDS_P1;SDS_P2;PMS_P1;PMS_P2;Temp;Humidity;BMP_temperature;BMP_pressure;BME280_temperature;BME280_humidity;BME280_pressure;Samples;Min_cycle;Max_cycle;Signal;HPM_P1;HPM_P2
2023/07/28 00:00:15;;;;;;;6.43;4.00;;;;;;;;;;10223830;29;20854;-76
2023/07/28 00:05:15;;;;;;;4.20;3.53;;;;;;;;;;10224334;28;20038;-75
2023/07/28 00:10:16;;;;;;;4.53;3.40;;;;;;;;;;10224064;28;20047;-76
2023/07/28 00:15:16;;;;;;;4.47;3.20;;;;;;;;;;10240767;28;20410;-80
2023/07/28 00:20:17;;;;;;;4.90;3.70;;;;;;;;;;10239622;28;20026;-74
2023/07/28 00:25:17;;;;;;;3.60;3.30;;;;;;;;;;10246031;28;20058;-79
2023/07/28 00:30:19;;;;;;;3.83;3.43;;;;;;;;;;10241924;28;20024;-78
2023/07/28 00:35:19;;;;;;;4.10;3.65;;;;;;;;;;10250872;28;20298;-77
2023/07/28 00:40:21;;;;;;;4.38;3.28;;;;;;;;;;10240635;28;20449;-79
2023/07/28 00:45:22;;;;;;;3.90;3.03;;;;;;;;;;10221877;28;20031;-78
2023/07/28 00:50:22;;;;;;;3.95;3.35;;;;;;;;;;10240598;28;20471;-76
2023/07/28 00:55:22;;;;;;;4.90;3.17;;;;;;;;;;10221853;28;20388;-77
2023/07/28 01:00:22;;;;;;;6.32;3.85;;;;;;;;;;10242988;28;20019;-76
2023/07/28 01:05:33;;;;;;;3.38;3.08;;;;;;;;;;10239413;29;20050;-74
2023/07/28 01:10:34;;;;;;;3.78;3.47;;;;;;;;;;10243018;28;20511;-81
2023/07/28 01:15:34;;;;;;;7.78;3.63;;;;;;;;;;10221571;29;20039;-77
2023/07/28 01:20:37;;;;;;;4.25;3.85;;;;;;;;;;10236952;28;20447;-76
2023/07/28 01:25:49;;;;;;;4.97;4.28;;;;;;;;;;10219180;28;20066;-80
2023/07/28 01:30:49;;;;;;;4.82;4.43;;;;;;;;;;10218999;28;20512;-78
2023/07/28 01:35:49;;;;;;;6.28;5.20;;;;;;;;;;10221287;28;20395;-78
2023/07/28 01:40:49;;;;;;;5.20;4.70;;;;;;;;;;10219959;29;20841;-75
2023/07/28 01:45:50;;;;;;;6.23;5.10;;;;;;;;;;10236848;28;20126;-78
2023/07/28 01:50:50;;;;;;;5.60;4.93;;;;;;;;;;10220631;29;20015;-79
2023/07/28 01:55:50;;;;;;;5.60;5.05;;;;;;;;;;10225011;28;20486;-77
2023/07/28 02:00:51;;;;;;;10.23;5.23;;;;;;;;;;10228665;29;20114;-79
2023/07/28 02:05:52;;;;;;;5.35;4.85;;;;;;;;;;10228107;28;20538;-78
2023/07/28 02:10:53;;;;;;;4.43;4.05;;;;;;;;;;10210285;29;20503;-77
2023/07/28 02:15:53;;;;;;;8.60;4.95;;;;;;;;;;10227652;29;20063;-76
2023/07/28 02:20:53;;;;;;;9.25;4.57;;;;;;;;;;10215552;29;20023;-75
2023/07/28 02:25:55;;;;;;;6.28;4.55;;;;;;;;;;10230338;28;20027;-74
2023/07/28 02:30:55;;;;;;;5.32;4.82;;;;;;;;;;10212019;29;20022;-75
2023/07/28 02:35:56;;;;;;;4.85;4.35;;;;;;;;;;10220231;28;20023;-79
2023/07/28 02:40:56;;;;;;;5.68;4.68;;;;;;;;;;10211310;29;20023;-73
2023/07/28 02:45:58;;;;;;;4.82;4.32;;;;;;;;;;10230079;29;20090;-75
2023/07/28 02:50:58;;;;;;;5.07;4.60;;;;;;;;;;10209816;29;20385;-76
2023/07/28 02:55:58;;;;;;;8.38;7.20;;;;;;;;;;10224018;29;20027;-80
2023/07/28 03:00:58;;;;;;;5.15;4.47;;;;;;;;;;10210351;29;20144;-78
2023/07/28 03:06:00;;;;;;;6.53;5.27;;;;;;;;;;10216172;28;20091;-80
2023/07/28 03:11:03;;;;;;;6.75;5.43;;;;;;;;;;10254170;28;20032;-79
2023/07/28 03:16:04;;;;;;;12.23;5.63;;;;;;;;;;10226100;28;20042;-79
2023/07/28 03:21:04;;;;;;;5.37;4.87;;;;;;;;;;10251523;28;20026;-77
2023/07/28 03:26:04;;;;;;;7.78;5.43;;;;;;;;;;10225502;29;20094;-79
2023/07/28 03:31:05;;;;;;;103.03;93.55;;;;;;;;;;10224860;29;20870;-79
2023/07/28 03:36:05;;;;;;;830.10;743.55;;;;;;;;;;10217406;28;20019;-80
2023/07/28 03:41:06;;;;;;;768.17;690.15;;;;;;;;;;10224927;28;20455;-74
2023/07/28 03:46:07;;;;;;;904.72;829.97;;;;;;;;;;10224590;28;20055;-81
2023/07/28 03:51:07;;;;;;;920.78;835.28;;;;;;;;;;10223420;29;20061;-78
2023/07/28 03:56:07;;;;;;;924.03;845.35;;;;;;;;;;10223923;29;20027;-81
2023/07/28 04:01:09;;;;;;;853.00;778.88;;;;;;;;;;10222699;29;20018;-78
2023/07/28 04:06:10;;;;;;;923.53;834.80;;;;;;;;;;10223267;28;20044;-75
2023/07/28 04:11:11;;;;;;;701.45;637.45;;;;;;;;;;10228045;29;20101;-75
2023/07/28 04:16:11;;;;;;;458.77;414.30;;;;;;;;;;10199412;28;20058;-75
2023/07/28 04:21:11;;;;;;;8.00;7.00;;;;;;;;;;10213701;29;20081;-74
2023/07/28 04:26:11;;;;;;;8.77;6.65;;;;;;;;;;10218503;28;20027;-79
2023/07/28 04:31:13;;;;;;;8.30;6.95;;;;;;;;;;10223676;28;20027;-78
2023/07/28 04:36:13;;;;;;;7.07;6.07;;;;;;;;;;10220871;28;20023;-79
2023/07/28 04:41:14;;;;;;;8.77;6.00;;;;;;;;;;10214126;29;20022;-73
2023/07/28 04:46:14;;;;;;;8.77;5.60;;;;;;;;;;10230897;28;20062;-80
2023/07/28 04:51:14;;;;;;;7.38;6.30;;;;;;;;;;10218896;28;20027;-77
2023/07/28 04:56:14;;;;;;;9.13;5.77;;;;;;;;;;10209602;29;20023;-80
2023/07/28 05:01:15;;;;;;;10.30;5.30;;;;;;;;;;10227847;29;20419;-75
2023/07/28 05:06:17;;;;;;;9.07;5.40;;;;;;;;;;10203393;28;20050;-81
2023/07/28 05:11:19;;;;;;;11.30;4.68;;;;;;;;;;10194876;29;20028;-79
2023/07/28 05:16:19;;;;;;;7.03;5.00;;;;;;;;;;10206548;29;20915;-83
2023/07/28 05:21:19;;;;;;;9.98;4.53;;;;;;;;;;10238353;28;20098;-82
2023/07/28 05:26:21;;;;;;;8.10;4.57;;;;;;;;;;10232804;29;20027;-82
2023/07/28 05:31:21;;;;;;;5.97;4.30;;;;;;;;;;10230855;28;20484;-83
2023/07/28 05:36:22;;;;;;;5.18;4.03;;;;;;;;;;10228078;28;20043;-81
2023/07/28 05:41:24;;;;;;;9.77;3.83;;;;;;;;;;10204612;28;20096;-80
2023/07/28 05:46:24;;;;;;;4.75;3.50;;;;;;;;;;10207188;29;20027;-79
2023/07/28 05:51:24;;;;;;;5.67;4.00;;;;;;;;;;10234395;28;20467;-74
2023/07/28 05:56:25;;;;;;;6.33;3.60;;;;;;;;;;10209318;28;20020;-70
2023/07/28 06:01:27;;;;;;;6.20;4.28;;;;;;;;;;10203547;28;20078;-75
2023/07/28 06:06:27;;;;;;;10.82;4.28;;;;;;;;;;10216627;29;20528;-78
2023/07/28 06:11:28;;;;;;;6.47;3.13;;;;;;;;;;10224377;29;20084;-79
2023/07/28 06:16:29;;;;;;;5.97;3.00;;;;;;;;;;10232907;28;20034;-75
2023/07/28 06:21:29;;;;;;;11.68;2.92;;;;;;;;;;10205313;28;20030;-75
2023/07/28 06:26:30;;;;;;;6.43;2.85;;;;;;;;;;10205593;28;20034;-75
2023/07/28 06:31:30;;;;;;;7.25;3.00;;;;;;;;;;10220056;29;20128;-78
2023/07/28 06:36:30;;;;;;;8.57;2.77;;;;;;;;;;10205449;29;20024;-78
2023/07/28 06:41:30;;;;;;;9.02;3.20;;;;;;;;;;10207776;29;20015;-78
2023/07/28 06:46:31;;;;;;;19.85;3.65;;;;;;;;;;10209073;29;20023;-77
2023/07/28 06:51:31;;;;;;;11.33;3.00;;;;;;;;;;10233150;28;20035;-75
2023/07/28 06:56:31;;;;;;;9.85;2.67;;;;;;;;;;10231309;28;20041;-79
2023/07/28 07:01:32;;;;;;;6.88;2.20;;;;;;;;;;10231505;28;20038;-74
2023/07/28 07:06:33;;;;;;;9.70;2.22;;;;;;;;;;10217335;29;20428;-79
2023/07/28 07:11:33;;;;;;;4.30;2.25;;;;;;;;;;10226189;28;20030;-79
2023/07/28 07:16:34;;;;;;;3.77;2.37;;;;;;;;;;10218156;28;20092;-74
2023/07/28 07:21:34;;;;;;;7.28;2.25;;;;;;;;;;10219734;29;20099;-74
2023/07/28 07:26:34;;;;;;;5.43;2.38;;;;;;;;;;10236004;28;20039;-74
2023/07/28 07:31:35;;;;;;;8.15;2.60;;;;;;;;;;10209733;28;20031;-75
2023/07/28 07:36:35;;;;;;;7.23;2.73;;;;;;;;;;10227933;28;20034;-78
2023/07/28 07:41:35;;;;;;;7.55;2.95;;;;;;;;;;10229326;28;20035;-83
2023/07/28 07:46:36;;;;;;;7.68;2.30;;;;;;;;;;10211676;29;20043;-75
2023/07/28 07:51:36;;;;;;;7.80;2.63;;;;;;;;;;10211289;29;20670;-76
2023/07/28 07:56:36;;;;;;;10.02;3.00;;;;;;;;;;10227766;29;20138;-81
2023/07/28 08:01:36;;;;;;;5.43;2.30;;;;;;;;;;10185427;29;20023;-78
2023/07/28 08:06:37;;;;;;;4.25;2.10;;;;;;;;;;10205065;29;20055;-81
2023/07/28 08:11:38;;;;;;;6.38;1.92;;;;;;;;;;10205614;29;20052;-80
2023/07/28 08:16:38;;;;;;;3.38;1.60;;;;;;;;;;10226645;28;20042;-74
2023/07/28 08:21:39;;;;;;;5.32;1.92;;;;;;;;;;10225443;28;20522;-74
2023/07/28 08:26:39;;;;;;;4.37;1.63;;;;;;;;;;10224495;29;20025;-79
2023/07/28 08:31:39;;;;;;;5.07;1.60;;;;;;;;;;10233697;28;20038;-78
2023/07/28 08:36:40;;;;;;;4.00;1.58;;;;;;;;;;10215653;28;20027;-80
2023/07/28 08:41:40;;;;;;;3.72;1.88;;;;;;;;;;10227219;28;20035;-77
2023/07/28 08:46:40;;;;;;;8.93;1.80;;;;;;;;;;10201263;28;20035;-74
2023/07/28 08:51:42;;;;;;;3.95;1.70;;;;;;;;;;10215152;29;20043;-79
2023/07/28 08:56:43;;;;;;;2.47;1.40;;;;;;;;;;10217038;28;20023;-74
2023/07/28 09:01:44;;;;;;;3.67;1.50;;;;;;;;;;10208073;28;20019;-80
2023/07/28 09:06:45;;;;;;;4.05;2.17;;;;;;;;;;10201082;29;20127;-75
2023/07/28 09:11:45;;;;;;;6.53;1.75;;;;;;;;;;10209097;29;20027;-77
2023/07/28 09:16:46;;;;;;;5.50;1.30;;;;;;;;;;10211231;29;20466;-80
2023/07/28 09:21:56;;;;;;;2.80;1.30;;;;;;;;;;10191529;29;20019;-76
2023/07/28 09:26:57;;;;;;;5.03;1.45;;;;;;;;;;10207759;29;20035;-76
2023/07/28 09:32:05;;;;;;;5.10;1.50;;;;;;;;;;10203739;29;20030;-73
2023/07/28 09:37:07;;;;;;;3.60;1.70;;;;;;;;;;10204878;28;20027;-74
2023/07/28 09:42:09;;;;;;;7.00;1.33;;;;;;;;;;10221898;28;20419;-77
2023/07/28 09:47:10;;;;;;;4.60;1.80;;;;;;;;;;10222074;28;20043;-79
2023/07/28 09:52:11;;;;;;;4.75;1.33;;;;;;;;;;10220165;29;20020;-77
2023/07/28 09:57:13;;;;;;;3.90;1.15;;;;;;;;;;10204703;29;20035;-80
2023/07/28 10:02:13;;;;;;;6.97;1.33;;;;;;;;;;10198928;29;20532;-75
2023/07/28 10:07:14;;;;;;;4.30;1.10;;;;;;;;;;10224478;28;20073;-77
2023/07/28 10:12:19;;;;;;;5.68;1.85;;;;;;;;;;10224976;28;20024;-74
2023/07/28 10:17:19;;;;;;;;;;;;;;;;;;10212401;28;20638;-77
2023/07/28 10:22:19;;;;;;;2.88;1.63;;;;;;;;;;10215372;29;19917;-76
2023/07/28 10:27:29;;;;;;;9.13;1.30;;;;;;;;;;10211760;29;20062;-73
2023/07/28 10:32:36;;;;;;;8.15;1.50;;;;;;;;;;10212343;29;20031;-83
2023/07/28 10:37:37;;;;;;;6.03;1.60;;;;;;;;;;10240187;29;20023;-79
2023/07/28 10:42:37;;;;;;;6.20;1.40;;;;;;;;;;10212718;29;20062;-81
2023/07/28 10:47:38;;;;;;;1.70;1.52;;;;;;;;;;10220384;28;20043;-80
2023/07/28 10:52:42;;;;;;;1.83;1.30;;;;;;;;;;10241962;29;20020;-79
2023/07/28 10:57:43;;;;;;;11.38;1.80;;;;;;;;;;10220801;28;20114;-78
2023/07/28 11:02:50;;;;;;;2.90;1.30;;;;;;;;;;10200827;29;20455;-77
2023/07/28 11:07:58;;;;;;;3.90;1.38;;;;;;;;;;10240333;28;20051;-78
2023/07/28 11:13:00;;;;;;;5.97;1.50;;;;;;;;;;10225523;28;20578;-74
2023/07/28 11:18:00;;;;;;;3.75;1.73;;;;;;;;;;10246116;28;20066;-76
2023/07/28 11:23:03;;;;;;;3.63;2.30;;;;;;;;;;10224844;29;20121;-74
2023/07/28 11:28:06;;;;;;;6.78;1.80;;;;;;;;;;10223879;28;20035;-74
2023/07/28 11:33:08;;;;;;;7.50;2.45;;;;;;;;;;10225397;28;20159;-77
2023/07/28 11:38:09;;;;;;;5.05;2.22;;;;;;;;;;10214012;29;20038;-79
2023/07/28 11:43:09;;;;;;;7.30;2.38;;;;;;;;;;10224410;29;20031;-79
2023/07/28 11:48:11;;;;;;;9.57;2.27;;;;;;;;;;10252028;28;20422;-81
2023/07/28 11:53:11;;;;;;;6.78;2.08;;;;;;;;;;10248683;28;20034;-81
2023/07/28 11:58:11;;;;;;;6.00;1.95;;;;;;;;;;10223783;29;20035;-75
2023/07/28 12:03:12;;;;;;;8.43;2.95;;;;;;;;;;10223048;28;20028;-75
2023/07/28 12:08:12;;;;;;;2.80;2.15;;;;;;;;;;10219171;29;20098;-82
2023/07/28 12:13:13;;;;;;;6.78;2.70;;;;;;;;;;10239250;28;20400;-80
2023/07/28 12:18:14;;;;;;;7.28;2.50;;;;;;;;;;10222812;28;20034;-74
2023/07/28 12:23:15;;;;;;;2.47;2.28;;;;;;;;;;10209720;28;20032;-73
2023/07/28 12:28:15;;;;;;;7.30;2.20;;;;;;;;;;10236644;28;20084;-77
2023/07/28 12:33:16;;;;;;;2.97;2.63;;;;;;;;;;10212607;29;20019;-78
2023/07/28 12:38:16;;;;;;;3.57;1.70;;;;;;;;;;10222222;28;20027;-81
2023/07/28 12:43:16;;;;;;;8.70;2.00;;;;;;;;;;10218770;29;20028;-78
2023/07/28 12:48:17;;;;;;;4.30;2.00;;;;;;;;;;10213740;29;20535;-79
2023/07/28 12:53:17;;;;;;;13.38;2.10;;;;;;;;;;10209855;29;20023;-79
2023/07/28 12:58:18;;;;;;;3.70;2.63;;;;;;;;;;10226942;29;20051;-77
2023/07/28 13:03:18;;;;;;;4.18;1.90;;;;;;;;;;10205263;29;20027;-72
2023/07/28 13:08:18;;;;;;;4.97;1.67;;;;;;;;;;10221940;28;20078;-73
2023/07/28 13:13:18;;;;;;;4.10;2.45;;;;;;;;;;10216139;28;20429;-77
2023/07/28 13:18:18;;;;;;;1.95;1.75;;;;;;;;;;10214667;29;20027;-74
2023/07/28 13:23:19;;;;;;;4.45;2.05;;;;;;;;;;10233883;28;20039;-76
2023/07/28 13:28:19;;;;;;;4.30;1.87;;;;;;;;;;10215635;29;20125;-74
2023/07/28 13:33:19;;;;;;;3.67;2.30;;;;;;;;;;10207531;28;20150;-78
2023/07/28 13:38:20;;;;;;;3.13;1.80;;;;;;;;;;10218395;28;20574;-77
2023/07/28 13:43:20;;;;;;;5.30;2.20;;;;;;;;;;10222150;28;20412;-78
2023/07/28 13:48:20;;;;;;;3.35;1.98;;;;;;;;;;10208803;29;20027;-78
2023/07/28 13:53:21;;;;;;;2.45;1.98;;;;;;;;;;10219933;28;20042;-73
2023/07/28 13:58:21;;;;;;;2.50;1.90;;;;;;;;;;10236728;29;20064;-74
2023/07/28 14:03:21;;;;;;;6.32;2.50;;;;;;;;;;10220723;28;20035;-78
2023/07/28 14:08:22;;;;;;;4.88;1.90;;;;;;;;;;10236011;28;20423;-77
2023/07/28 14:13:23;;;;;;;4.07;2.03;;;;;;;;;;10229070;28;20034;-75
2023/07/28 14:18:23;;;;;;;2.78;2.13;;;;;;;;;;10224637;28;20027;-78
2023/07/28 14:23:24;;;;;;;6.75;2.50;;;;;;;;;;10219435;29;20918;-75
2023/07/28 14:28:24;;;;;;;5.05;2.40;;;;;;;;;;10232907;28;20039;-77
2023/07/28 14:33:26;;;;;;;2.33;2.07;;;;;;;;;;10226086;28;20483;-77
2023/07/28 14:38:26;;;;;;;6.82;2.35;;;;;;;;;;10243561;28;20277;-75
2023/07/28 14:43:27;;;;;;;5.03;1.85;;;;;;;;;;10237803;28;20511;-77
2023/07/28 14:48:27;;;;;;;4.67;2.30;;;;;;;;;;10238029;28;20035;-78
2023/07/28 14:53:31;;;;;;;8.10;2.47;;;;;;;;;;10230286;28;20035;-75
2023/07/28 14:58:32;;;;;;;4.90;2.30;;;;;;;;;;10208877;29;20027;-79
2023/07/28 15:03:33;;;;;;;2.15;1.55;;;;;;;;;;10226150;28;20570;-77
2023/07/28 15:08:33;;;;;;;3.85;2.28;;;;;;;;;;10213128;28;20039;-75
2023/07/28 15:13:33;;;;;;;6.82;2.38;;;;;;;;;;10208137;29;20027;-76
2023/07/28 15:18:33;;;;;;;4.88;2.50;;;;;;;;;;10203506;28;20182;-73
2023/07/28 15:23:34;;;;;;;5.47;2.45;;;;;;;;;;10217819;28;20028;-75
2023/07/28 15:28:34;;;;;;;5.57;2.67;;;;;;;;;;10200234;29;20468;-74
2023/07/28 15:33:36;;;;;;;3.85;2.35;;;;;;;;;;10220400;29;20091;-76
2023/07/28 15:38:36;;;;;;;6.28;2.58;;;;;;;;;;10240721;28;20250;-72
2023/07/28 15:43:36;;;;;;;8.43;2.92;;;;;;;;;;10211480;28;20027;-77
2023/07/28 15:48:36;;;;;;;4.40;2.47;;;;;;;;;;10228051;28;20110;-73
2023/07/28 15:53:37;;;;;;;13.68;5.93;;;;;;;;;;10214243;28;20384;-78
2023/07/28 15:58:37;;;;;;;7.00;3.17;;;;;;;;;;10221627;28;20035;-73
2023/07/28 16:03:37;;;;;;;4.90;2.75;;;;;;;;;;10211433;29;20031;-74
2023/07/28 16:08:38;;;;;;;2.53;2.08;;;;;;;;;;10237505;29;20051;-73
2023/07/28 16:13:38;;;;;;;3.97;2.07;;;;;;;;;;10211261;28;20476;-79
2023/07/28 16:18:38;;;;;;;4.63;2.40;;;;;;;;;;10197505;29;20032;-76
2023/07/28 16:23:38;;;;;;;5.22;2.42;;;;;;;;;;10228367;29;20038;-75
2023/07/28 16:28:39;;;;;;;6.10;2.05;;;;;;;;;;10218933;28;20032;-74
2023/07/28 16:33:39;;;;;;;5.70;2.00;;;;;;;;;;10210329;28;20032;-74
2023/07/28 16:38:39;;;;;;;2.58;1.67;;;;;;;;;;10207585;28;20027;-79
2023/07/28 16:43:39;;;;;;;2.85;1.90;;;;;;;;;;10206764;28;20031;-74
2023/07/28 16:48:39;;;;;;;2.75;1.63;;;;;;;;;;10211383;29;20028;-77
2023/07/28 16:53:40;;;;;;;3.95;1.88;;;;;;;;;;10221502;28;20561;-78
2023/07/28 16:58:40;;;;;;;4.15;2.30;;;;;;;;;;10224861;29;20499;-75
2023/07/28 17:03:40;;;;;;;2.22;1.50;;;;;;;;;;10235876;28;20027;-77
2023/07/28 17:08:40;;;;;;;4.63;2.13;;;;;;;;;;10238047;28;20480;-77
2023/07/28 17:13:41;;;;;;;2.85;1.98;;;;;;;;;;10236460;29;20480;-77
2023/07/28 17:18:41;;;;;;;3.05;2.22;;;;;;;;;;10227827;29;20062;-77
2023/07/28 17:23:41;;;;;;;4.65;1.80;;;;;;;;;;10224617;28;20054;-74
2023/07/28 17:28:42;;;;;;;2.80;1.90;;;;;;;;;;10216762;28;20102;-77
2023/07/28 17:33:42;;;;;;;3.05;2.08;;;;;;;;;;10228837;29;20432;-73
2023/07/28 17:38:42;;;;;;;9.57;2.70;;;;;;;;;;10224306;29;20435;-75
2023/07/28 17:43:43;;;;;;;2.85;2.17;;;;;;;;;;10222377;28;20476;-78
2023/07/28 17:48:43;;;;;;;5.07;2.80;;;;;;;;;;10219763;28;20418;-73
2023/07/28 17:53:44;;;;;;;4.97;2.72;;;;;;;;;;10225599;28;20058;-79
2023/07/28 17:58:44;;;;;;;5.33;3.13;;;;;;;;;;10225537;28;20027;-75
2023/07/28 18:03:45;;;;;;;5.05;2.42;;;;;;;;;;10226360;28;20531;-78
2023/07/28 18:08:46;;;;;;;5.30;2.67;;;;;;;;;;10222427;29;20424;-80
2023/07/28 18:13:47;;;;;;;17.15;4.57;;;;;;;;;;10220844;28;20046;-78
2023/07/28 18:18:48;;;;;;;11.10;3.72;;;;;;;;;;10203698;29;20066;-76
2023/07/28 18:23:49;;;;;;;10.05;4.47;;;;;;;;;;10228430;29;20034;-82
2023/07/28 18:28:49;;;;;;;8.27;4.20;;;;;;;;;;10210158;28;20482;-78
2023/07/28 18:33:50;;;;;;;7.20;3.78;;;;;;;;;;10212312;29;20502;-79
2023/07/28 18:38:50;;;;;;;5.30;3.58;;;;;;;;;;10220899;28;20082;-79
2023/07/28 18:43:52;;;;;;;11.05;3.55;;;;;;;;;;10240617;28;20507;-77
2023/07/28 18:48:53;;;;;;;6.60;2.97;;;;;;;;;;10205115;29;20102;-78
2023/07/28 18:53:53;;;;;;;16.58;4.28;;;;;;;;;;10223471;29;20016;-77
2023/07/28 18:58:54;;;;;;;9.63;3.67;;;;;;;;;;10237990;28;20019;-72
2023/07/28 19:03:54;;;;;;;8.30;4.53;;;;;;;;;;10216484;28;20111;-74
2023/07/28 19:08:55;;;;;;;9.43;5.72;;;;;;;;;;10229649;28;20047;-84
2023/07/28 19:13:55;;;;;;;16.38;8.45;;;;;;;;;;10205553;28;20467;-80
2023/07/28 19:18:56;;;;;;;8.87;5.63;;;;;;;;;;10231596;29;20024;-80
2023/07/28 19:23:56;;;;;;;6.43;3.80;;;;;;;;;;10223346;28;20019;-78
2023/07/28 19:28:57;;;;;;;8.30;3.83;;;;;;;;;;10224228;29;20020;-73
2023/07/28 19:33:57;;;;;;;8.27;3.40;;;;;;;;;;10213420;28;20035;-74
2023/07/28 19:38:57;;;;;;;5.68;3.45;;;;;;;;;;10236029;28;20107;-75
2023/07/28 19:43:57;;;;;;;5.77;2.90;;;;;;;;;;10212425;29;20150;-81
2023/07/28 19:48:58;;;;;;;7.72;3.08;;;;;;;;;;10211028;28;20463;-74
2023/07/28 19:53:59;;;;;;;4.80;3.00;;;;;;;;;;10218120;28;20027;-74
2023/07/28 19:58:59;;;;;;;8.60;3.40;;;;;;;;;;10217355;28;20402;-74
2023/07/28 20:04:00;;;;;;;10.98;3.30;;;;;;;;;;10212255;28;20054;-73
2023/07/28 20:09:00;;;;;;;6.75;3.85;;;;;;;;;;10210627;29;20055;-74
2023/07/28 20:14:01;;;;;;;14.05;4.43;;;;;;;;;;10210753;28;20462;-78
2023/07/28 20:19:01;;;;;;;6.13;3.85;;;;;;;;;;10211373;28;20416;-73
2023/07/28 20:24:01;;;;;;;5.18;3.42;;;;;;;;;;10230293;28;20027;-74
2023/07/28 20:29:02;;;;;;;5.10;3.38;;;;;;;;;;10204299;29;20028;-73
2023/07/28 20:34:02;;;;;;;4.88;3.35;;;;;;;;;;10210865;28;20058;-81
2023/07/28 20:39:03;;;;;;;8.47;3.30;;;;;;;;;;10226313;28;20066;-75
2023/07/28 20:44:03;;;;;;;4.97;3.33;;;;;;;;;;10199128;28;20021;-80
2023/07/28 20:49:05;;;;;;;7.15;3.33;;;;;;;;;;10212317;29;20036;-78
2023/07/28 20:54:06;;;;;;;9.07;4.00;;;;;;;;;;10224058;28;20102;-78
2023/07/28 20:59:06;;;;;;;5.32;3.53;;;;;;;;;;10209155;28;20019;-75
2023/07/28 21:04:06;;;;;;;7.47;3.77;;;;;;;;;;10208705;29;20040;-75
2023/07/28 21:09:07;;;;;;;7.15;3.97;;;;;;;;;;10196697;28;20047;-74
2023/07/28 21:14:08;;;;;;;5.57;3.65;;;;;;;;;;10221026;29;20458;-75
2023/07/28 21:19:08;;;;;;;8.30;4.00;;;;;;;;;;10226431;28;20020;-80
2023/07/28 21:24:08;;;;;;;6.70;3.17;;;;;;;;;;10224909;28;20016;-74
2023/07/28 21:29:09;;;;;;;10.03;4.03;;;;;;;;;;10204972;29;20019;-83
2023/07/28 21:34:13;;;;;;;7.35;3.40;;;;;;;;;;10231495;28;20363;-75
2023/07/28 21:39:14;;;;;;;5.07;2.80;;;;;;;;;;10205405;28;20023;-80
2023/07/28 21:44:14;;;;;;;5.97;3.75;;;;;;;;;;10198051;29;20078;-77
2023/07/28 21:49:15;;;;;;;5.63;3.70;;;;;;;;;;10235459;28;20415;-75
2023/07/28 21:54:15;;;;;;;6.50;2.92;;;;;;;;;;10213008;28;20023;-77
2023/07/28 21:59:16;;;;;;;6.00;3.67;;;;;;;;;;10209454;29;20035;-78
2023/07/28 22:04:16;;;;;;;4.85;3.30;;;;;;;;;;10232454;28;20022;-79
2023/07/28 22:09:16;;;;;;;6.67;3.20;;;;;;;;;;10213827;28;20090;-75
2023/07/28 22:14:17;;;;;;;9.75;3.42;;;;;;;;;;10225543;28;20023;-75
2023/07/28 22:19:17;;;;;;;5.00;3.40;;;;;;;;;;10234625;29;20083;-78
2023/07/28 22:24:17;;;;;;;6.03;3.37;;;;;;;;;;10216297;29;20028;-77
2023/07/28 22:29:21;;;;;;;5.25;3.55;;;;;;;;;;10213201;29;20102;-82
2023/07/28 22:34:21;;;;;;;5.35;3.13;;;;;;;;;;10236538;28;20572;-73
2023/07/28 22:39:21;;;;;;;5.10;2.80;;;;;;;;;;10213765;29;20066;-76
2023/07/28 22:44:22;;;;;;;5.63;3.00;;;;;;;;;;10231179;28;20467;-77
2023/07/28 22:49:22;;;;;;;3.90;2.60;;;;;;;;;;10230643;28;20396;-79
2023/07/28 22:54:22;;;;;;;4.22;2.50;;;;;;;;;;10218554;29;20129;-78
2023/07/28 22:59:23;;;;;;;4.25;3.00;;;;;;;;;;10222980;29;20767;-80
2023/07/28 23:04:23;;;;;;;5.23;3.10;;;;;;;;;;10211208;29;20539;-78
2023/07/28 23:09:23;;;;;;;7.38;2.88;;;;;;;;;;10238287;28;20303;-80
2023/07/28 23:14:24;;;;;;;6.90;2.53;;;;;;;;;;10221037;28;20090;-77
2023/07/28 23:19:25;;;;;;;8.68;3.38;;;;;;;;;;10214226;29;20566;-80
2023/07/28 23:24:26;;;;;;;4.95;3.38;;;;;;;;;;10214007;28;20019;-79
2023/07/28 23:29:27;;;;;;;6.85;3.75;;;;;;;;;;10228626;28;20027;-78
2023/07/28 23:34:27;;;;;;;6.63;2.80;;;;;;;;;;10243024;28;20030;-79
2023/07/28 23:39:28;;;;;;;4.50;2.50;;;;;;;;;;10227415;28;20030;-74
2023/07/28 23:44:29;;;;;;;7.95;2.95;;;;;;;;;;10232927;28;20492;-74
2023/07/28 23:49:29;;;;;;;4.57;3.00;;;;;;;;;;10228694;28;20111;-78
2023/07/28 23:54:29;;;;;;;11.75;3.45;;;;;;;;;;10228151;28;20119;-78
2023/07/28 23:59:30;;;;;;;6.45;3.53;;;;;;;;;;10212181;28;20030;-77
